createdAt,value
2022-08-30T00:01:14.057Z,79.06
2022-08-30T00:03:45.748Z,79.14
2022-08-30T00:06:13.554Z,80.43
2022-08-30T00:08:41.018Z,79.28
2022-08-30T00:11:09.884Z,80.48
2022-08-30T00:13:37.638Z,79.07
2022-08-30T00:16:04.953Z,78.19
2022-08-30T00:18:31.465Z,76.78
2022-08-30T00:20:57.934Z,76.65
2022-08-30T00:23:24.579Z,77.13
2022-08-30T00:25:51.249Z,77.12
2022-08-30T00:28:17.696Z,76.76
2022-08-30T00:30:45.025Z,76.43
2022-08-30T00:33:12.059Z,76.32
2022-08-30T00:35:39.981Z,75.91
2022-08-30T00:38:07.608Z,75.27
2022-08-30T00:40:34.794Z,75.92
2022-08-30T00:43:05.800Z,76.19
2022-08-30T00:45:36.657Z,76.42
2022-08-30T00:48:03.682Z,76.15
2022-08-30T00:50:36.058Z,76.55
2022-08-30T00:53:05.118Z,76.24
2022-08-30T00:55:33.219Z,75.86
2022-08-30T00:58:02.357Z,75.92
2022-08-30T01:00:31.677Z,75.86
2022-08-30T01:02:58.297Z,75.69
2022-08-30T01:05:24.797Z,76.04
2022-08-30T01:07:51.301Z,77.46
2022-08-30T01:10:17.841Z,78.14
2022-08-30T01:12:44.972Z,77.70
2022-08-30T01:15:14.460Z,77.33
2022-08-30T01:17:42.578Z,77.36
2022-08-30T01:20:12.293Z,77.30
2022-08-30T01:22:38.657Z,78.13
2022-08-30T01:25:09.184Z,78.73
2022-08-30T01:27:38.239Z,77.78
2022-08-30T01:30:05.677Z,79.51
2022-08-30T01:32:38.054Z,79.70
2022-08-30T01:35:04.606Z,79.57
2022-08-30T01:37:32.782Z,79.63
2022-08-30T01:39:59.411Z,78.86
2022-08-30T01:42:25.978Z,79.58
2022-08-30T01:44:54.511Z,79.38
2022-08-30T01:47:21.374Z,80.40
2022-08-30T01:49:48.079Z,79.79
2022-08-30T01:52:15.884Z,80.69
2022-08-30T01:54:43.127Z,81.31
2022-08-30T01:57:10.645Z,80.86
2022-08-30T01:59:38.345Z,81.94
2022-08-30T02:02:05.874Z,82.05
2022-08-30T02:04:32.642Z,80.97
2022-08-30T02:06:59.073Z,80.38
2022-08-30T02:09:25.471Z,81.16
2022-08-30T02:11:51.969Z,81.34
2022-08-30T02:14:18.369Z,81.09
2022-08-30T02:16:48.539Z,82.30
2022-08-30T02:19:15.232Z,82.63
2022-08-30T02:21:41.654Z,83.34
2022-08-30T02:24:08.052Z,82.45
2022-08-30T02:26:36.604Z,82.18
2022-08-30T02:29:05.290Z,84.70
2022-08-30T02:31:32.145Z,84.73
2022-08-30T02:33:58.726Z,85.08
2022-08-30T02:36:25.605Z,85.32
2022-08-30T02:38:52.051Z,86.84
2022-08-30T02:41:18.982Z,86.40
2022-08-30T02:43:45.750Z,85.84
2022-08-30T02:46:12.281Z,85.67
2022-08-30T02:48:38.771Z,88.13
2022-08-30T02:51:06.847Z,88.64
2022-08-30T02:53:36.914Z,87.76
2022-08-30T02:56:03.615Z,87.93
2022-08-30T02:58:30.151Z,87.09
2022-08-30T03:00:57.044Z,87.41
2022-08-30T03:03:23.586Z,87.01
2022-08-30T03:05:50.083Z,86.40
2022-08-30T03:08:16.534Z,86.90
2022-08-30T03:10:42.987Z,87.16
2022-08-30T03:13:09.566Z,87.50
2022-08-30T03:15:37.510Z,88.72
2022-08-30T03:18:04.122Z,88.84
2022-08-30T03:20:30.545Z,88.51
2022-08-30T03:22:56.967Z,89.41
2022-08-30T03:25:23.955Z,90.34
2022-08-30T03:27:50.843Z,90.05
2022-08-30T03:30:18.272Z,89.17
2022-08-30T03:32:45.075Z,88.52
2022-08-30T03:35:11.647Z,88.49
2022-08-30T03:37:38.082Z,89.16
2022-08-30T03:40:05.990Z,90.48
2022-08-30T03:42:33.065Z,90.95
2022-08-30T03:44:59.475Z,90.79
2022-08-30T03:47:25.934Z,90.54
2022-08-30T03:49:52.347Z,91.62
2022-08-30T03:52:18.748Z,90.54
2022-08-30T03:54:45.177Z,91.17
2022-08-30T03:57:11.617Z,90.80
2022-08-30T03:59:46.694Z,91.42
2022-08-30T04:02:13.173Z,91.57
2022-08-30T04:04:39.630Z,91.96
2022-08-30T04:07:06.327Z,92.78
2022-08-30T04:09:32.722Z,92.02
2022-08-30T04:12:00.199Z,94.49
2022-08-30T04:14:26.628Z,93.21
2022-08-30T04:16:53.154Z,92.44
2022-08-30T04:19:19.622Z,93.86
2022-08-30T04:21:46.055Z,91.94
2022-08-30T04:24:12.786Z,91.66
2022-08-30T04:26:39.207Z,91.20
2022-08-30T04:29:05.657Z,90.70
2022-08-30T04:31:32.117Z,91.47
2022-08-30T04:33:58.669Z,93.18
2022-08-30T04:36:25.161Z,93.11
2022-08-30T04:38:51.579Z,92.88
2022-08-30T04:41:19.224Z,92.64
2022-08-30T04:43:47.083Z,93.04
2022-08-30T04:46:16.523Z,93.12
2022-08-30T04:48:43.074Z,92.93
2022-08-30T04:51:10.736Z,93.23
2022-08-30T04:53:37.817Z,93.77
2022-08-30T04:56:08.733Z,94.34
2022-08-30T04:58:35.191Z,94.10
2022-08-30T05:01:01.700Z,94.72
2022-08-30T05:03:28.926Z,93.94
2022-08-30T05:05:55.362Z,93.39
2022-08-30T05:08:24.725Z,95.71
2022-08-30T05:10:52.211Z,95.34
2022-08-30T05:13:20.801Z,94.81
2022-08-30T05:15:51.103Z,94.63
2022-08-30T05:18:20.725Z,96.02
2022-08-30T05:20:47.155Z,95.73
2022-08-30T05:23:13.661Z,95.76
2022-08-30T05:25:41.319Z,87.47
2022-08-30T05:28:08.358Z,81.23
2022-08-30T05:30:35.896Z,78.86
2022-08-30T05:33:02.789Z,77.24
2022-08-30T05:35:29.300Z,74.08
2022-08-30T05:37:55.751Z,73.82
2022-08-30T05:40:22.836Z,75.83
2022-08-30T05:42:49.321Z,74.12
2022-08-30T05:45:16.179Z,73.73
2022-08-30T05:47:42.590Z,74.92
2022-08-30T05:50:09.429Z,74.89
2022-08-30T05:52:37.175Z,74.71
2022-08-30T05:55:04.359Z,70.46
2022-08-30T05:57:34.722Z,70.34
2022-08-30T06:00:05.034Z,69.20
2022-08-30T06:02:31.626Z,70.60
2022-08-30T06:05:00.787Z,69.83
2022-08-30T06:07:27.219Z,69.17
2022-08-30T06:09:53.627Z,68.79
2022-08-30T06:12:20.259Z,68.59
2022-08-30T06:14:46.652Z,69.65
2022-08-30T06:17:13.102Z,67.98
2022-08-30T06:19:39.969Z,66.37
2022-08-30T06:22:06.612Z,65.99
2022-08-30T06:24:55.925Z,67.12
2022-08-30T06:27:19.482Z,68.00
2022-08-30T06:29:46.001Z,66.80
2022-08-30T06:32:12.523Z,63.76
2022-08-30T06:34:39.064Z,65.20
2022-08-30T06:37:05.551Z,65.50
2022-08-30T06:39:32.202Z,66.18
2022-08-30T06:41:58.702Z,66.34
2022-08-30T06:44:25.129Z,65.62
2022-08-30T06:46:51.632Z,66.91
2022-08-30T06:49:18.090Z,65.66
2022-08-30T06:51:44.499Z,66.22
2022-08-30T06:54:12.095Z,65.63
2022-08-30T06:56:40.191Z,65.65
2022-08-30T06:59:09.016Z,65.34
2022-08-30T07:01:35.475Z,65.64
2022-08-30T07:04:02.011Z,66.66
2022-08-30T07:06:29.242Z,61.64
2022-08-30T07:08:56.421Z,63.37
2022-08-30T07:11:34.334Z,63.60
2022-08-30T07:14:01.144Z,60.79
2022-08-30T07:16:28.064Z,61.70
2022-08-30T07:18:55.417Z,60.13
2022-08-30T07:21:23.661Z,61.51
2022-08-30T07:23:53.268Z,58.41
2022-08-30T07:26:22.254Z,57.52
2022-08-30T07:28:48.770Z,57.82
2022-08-30T07:31:22.291Z,56.60
2022-08-30T07:33:49.393Z,53.94
2022-08-30T07:36:17.750Z,55.72
2022-08-30T07:38:45.411Z,54.03
2022-08-30T07:41:16.725Z,53.50
2022-08-30T07:43:43.142Z,54.15
2022-08-30T07:46:10.010Z,51.18
2022-08-30T07:48:36.715Z,51.19
2022-08-30T07:51:05.546Z,50.91
2022-08-30T07:53:32.155Z,49.88
2022-08-30T07:55:58.561Z,51.61
2022-08-30T07:58:25.004Z,51.88
2022-08-30T08:00:51.455Z,51.42
2022-08-30T08:03:17.859Z,49.34
2022-08-30T08:05:45.322Z,50.66
2022-08-30T08:08:12.883Z,50.67
2022-08-30T08:10:40.636Z,51.19
2022-08-30T08:13:07.337Z,50.53
2022-08-30T08:15:33.812Z,50.58
2022-08-30T08:18:01.215Z,48.92
2022-08-30T08:20:28.135Z,49.66
2022-08-30T08:22:54.623Z,48.79
2022-08-30T08:25:21.442Z,48.18
2022-08-30T08:27:50.694Z,48.36
2022-08-30T08:30:20.982Z,48.09
2022-08-30T08:32:48.122Z,47.99
2022-08-30T08:35:15.326Z,48.37
2022-08-30T08:37:41.738Z,48.26
2022-08-30T08:40:08.698Z,48.44
2022-08-30T08:42:53.807Z,46.45
2022-08-30T08:45:27.126Z,46.36
2022-08-30T08:48:01.401Z,46.21
2022-08-30T08:50:30.748Z,47.08
2022-08-30T08:53:36.077Z,47.30
2022-08-30T08:56:12.209Z,47.15
2022-08-30T08:58:49.201Z,48.43
2022-08-30T09:01:17.142Z,45.99
2022-08-30T09:03:44.373Z,48.92
2022-08-30T09:06:30.567Z,48.05
2022-08-30T09:08:57.111Z,48.70
2022-08-30T09:11:28.084Z,47.92
2022-08-30T09:13:54.913Z,46.79
2022-08-30T09:16:40.128Z,44.22
2022-08-30T09:19:07.246Z,43.96
2022-08-30T09:21:34.129Z,44.66
2022-08-30T09:24:04.643Z,43.35
2022-08-30T09:26:32.809Z,44.46
2022-08-30T09:29:01.026Z,45.10
2022-08-30T09:31:45.939Z,43.98
2022-08-30T09:34:17.168Z,41.71
2022-08-30T09:36:45.635Z,41.58
2022-08-30T09:39:31.993Z,41.53
2022-08-30T09:42:25.470Z,42.97
2022-08-30T09:44:52.857Z,42.03
2022-08-30T09:47:29.707Z,41.93
2022-08-30T09:50:04.226Z,41.86
2022-08-30T09:52:38.939Z,42.80
2022-08-30T09:55:14.421Z,42.40
2022-08-30T09:57:40.831Z,41.11
2022-08-30T10:00:07.567Z,41.77
2022-08-30T10:02:42.651Z,42.07
2022-08-30T10:05:14.930Z,42.19
2022-08-30T10:08:00.469Z,42.52
2022-08-30T10:10:41.783Z,42.40
2022-08-30T10:13:21.387Z,41.96
2022-08-30T10:15:51.543Z,41.56
2022-08-30T10:18:20.944Z,41.39
2022-08-30T10:21:07.168Z,41.12
2022-08-30T10:23:46.030Z,41.16
2022-08-30T10:26:27.838Z,41.25
2022-08-30T10:29:00.028Z,40.33
2022-08-30T10:31:29.608Z,39.63
2022-08-30T10:34:00.410Z,40.71
2022-08-30T10:36:55.964Z,40.11
2022-08-30T10:39:24.637Z,39.69
2022-08-30T10:41:55.707Z,39.62
2022-08-30T10:44:28.642Z,39.40
2022-08-30T10:47:06.297Z,39.82
2022-08-30T10:49:36.426Z,38.53
2022-08-30T10:52:06.965Z,41.44
2022-08-30T10:54:50.580Z,37.61
2022-08-30T10:57:18.390Z,37.15
2022-08-30T10:59:46.913Z,37.29
2022-08-30T11:02:25.372Z,37.12
2022-08-30T11:04:57.989Z,36.73
2022-08-30T11:07:46.187Z,37.05
2022-08-30T11:10:15.743Z,36.26
2022-08-30T11:12:53.208Z,37.86
2022-08-30T11:15:21.774Z,36.87
2022-08-30T11:18:01.827Z,34.54
2022-08-30T11:20:31.043Z,35.45
2022-08-30T11:23:16.142Z,37.35
2022-08-30T11:25:53.408Z,36.83
2022-08-30T11:28:36.587Z,36.59
2022-08-30T11:31:18.380Z,35.58
2022-08-30T11:33:48.042Z,36.26
2022-08-30T11:36:46.159Z,35.11
2022-08-30T11:39:21.925Z,34.57
2022-08-30T11:42:09.298Z,36.25
2022-08-30T11:44:35.718Z,33.74
2022-08-30T11:47:22.093Z,37.12
2022-08-30T11:49:57.767Z,32.69
2022-08-30T11:52:33.459Z,33.29
2022-08-30T11:55:02.954Z,33.37
2022-08-30T11:57:43.849Z,35.92
2022-08-30T12:00:31.508Z,33.87
2022-08-30T12:03:06.309Z,33.27
2022-08-30T12:05:35.581Z,33.78
2022-08-30T12:08:03.119Z,33.08
2022-08-30T12:10:38.630Z,33.52
2022-08-30T12:13:06.364Z,36.32
2022-08-30T12:15:53.589Z,33.23
2022-08-30T12:18:29.917Z,35.57
2022-08-30T12:21:00.629Z,34.04
2022-08-30T12:23:46.261Z,31.93
2022-08-30T12:26:15.984Z,31.58
2022-08-30T12:28:43.677Z,32.06
2022-08-30T12:31:16.254Z,31.18
2022-08-30T12:33:45.357Z,33.95
2022-08-30T12:36:32.636Z,29.71
2022-08-30T12:39:07.786Z,32.69
2022-08-30T12:41:34.646Z,32.70
2022-08-30T12:44:14.538Z,29.63
2022-08-30T12:46:42.074Z,28.21
2022-08-30T12:49:08.662Z,28.20
2022-08-30T12:51:37.424Z,27.73
2022-08-30T12:54:06.585Z,26.96
2022-08-30T12:56:50.501Z,27.23
2022-08-30T12:59:36.525Z,27.65
2022-08-30T13:02:20.387Z,28.48
2022-08-30T13:04:48.655Z,27.15
2022-08-30T13:07:35.376Z,25.68
2022-08-30T13:10:04.754Z,24.65
2022-08-30T13:12:31.637Z,25.49
2022-08-30T13:15:16.623Z,23.84
2022-08-30T13:17:44.703Z,23.86
2022-08-30T13:20:17.173Z,28.38
2022-08-30T13:23:00.954Z,28.64
2022-08-30T13:25:27.654Z,27.02
2022-08-30T13:27:54.538Z,25.33
2022-08-30T13:30:21.126Z,25.61
2022-08-30T13:32:47.789Z,25.07
2022-08-30T13:35:14.215Z,24.22
2022-08-30T13:37:49.369Z,25.20
2022-08-30T13:40:17.597Z,22.88
2022-08-30T13:42:44.612Z,23.03
2022-08-30T13:48:00.198Z,21.89
2022-08-30T13:50:27.605Z,21.50
2022-08-30T13:52:54.007Z,22.08
2022-08-30T13:55:20.423Z,21.75
2022-08-30T13:57:55.171Z,23.05
2022-08-30T14:00:23.547Z,22.14
2022-08-30T14:02:54.767Z,22.66
2022-08-30T14:05:50.489Z,23.10
2022-08-30T14:11:07.317Z,23.10
2022-08-30T14:13:33.838Z,24.09
2022-08-30T14:18:48.258Z,28.40
2022-08-30T14:21:15.496Z,29.35
2022-08-30T14:23:42.052Z,29.71
2022-08-30T14:26:17.233Z,31.17
2022-08-30T14:28:44.864Z,28.78
2022-08-30T14:31:11.579Z,29.70
2022-08-30T14:33:38.612Z,29.62
2022-08-30T14:36:07.739Z,33.99
2022-08-30T14:38:37.755Z,30.20
2022-08-30T14:41:05.027Z,32.50
2022-08-30T14:43:31.470Z,33.25
2022-08-30T14:45:58.705Z,35.66
2022-08-30T14:48:25.230Z,36.11
2022-08-30T14:50:54.712Z,34.85
2022-08-30T14:53:21.619Z,34.25
2022-08-30T14:55:48.617Z,34.17
2022-08-30T14:58:17.949Z,35.33
2022-08-30T15:00:52.190Z,35.86
2022-08-30T15:03:18.781Z,37.71
2022-08-30T15:05:49.576Z,36.90
2022-08-30T15:08:19.783Z,37.48
2022-08-30T15:10:47.398Z,36.69
2022-08-30T15:13:13.982Z,37.92
2022-08-30T15:15:41.938Z,37.48
2022-08-30T15:18:08.511Z,37.05
2022-08-30T15:20:34.939Z,37.51
2022-08-30T15:23:01.463Z,36.20
2022-08-30T15:25:28.008Z,36.02
2022-08-30T15:27:54.425Z,35.66
2022-08-30T15:30:22.136Z,35.72
2022-08-30T15:32:48.646Z,35.45
2022-08-30T15:35:15.126Z,37.47
2022-08-30T15:37:42.991Z,36.72
2022-08-30T15:40:10.027Z,41.76
2022-08-30T15:42:36.585Z,40.43
2022-08-30T15:45:03.021Z,34.96
2022-08-30T15:47:30.610Z,30.82
2022-08-30T15:50:02.987Z,27.94
2022-08-30T15:52:30.930Z,29.25
2022-08-30T15:54:58.756Z,26.04
2022-08-30T15:57:26.400Z,28.59
2022-08-30T15:59:54.802Z,25.63
2022-08-30T16:02:21.970Z,25.85
2022-08-30T16:04:54.423Z,26.73
2022-08-30T16:07:20.864Z,25.53
2022-08-30T16:09:47.427Z,26.08
2022-08-30T16:12:22.309Z,27.22
2022-08-30T16:14:50.410Z,28.37
2022-08-30T16:17:16.824Z,27.98
2022-08-30T16:19:44.659Z,26.94
2022-08-30T16:22:11.718Z,27.22
2022-08-30T16:24:39.145Z,28.72
2022-08-30T16:27:05.681Z,29.81
2022-08-30T16:29:35.261Z,30.37
2022-08-30T16:32:01.742Z,30.37
2022-08-30T16:34:30.426Z,30.33
2022-08-30T16:36:59.879Z,30.90
2022-08-30T16:39:26.305Z,31.38
2022-08-30T16:41:52.749Z,31.37
2022-08-30T16:44:20.218Z,31.82
2022-08-30T16:46:53.094Z,33.27
2022-08-30T16:49:20.348Z,32.75
2022-08-30T16:51:49.589Z,33.33
2022-08-30T16:54:17.403Z,34.20
2022-08-30T16:56:44.255Z,34.02
2022-08-30T16:59:13.110Z,33.70
2022-08-30T17:01:42.067Z,34.31
2022-08-30T17:04:08.939Z,34.64
2022-08-30T17:06:35.795Z,35.25
2022-08-30T17:09:02.617Z,34.33
2022-08-30T17:11:29.023Z,36.23
2022-08-30T17:13:55.469Z,35.98
2022-08-30T17:16:27.475Z,36.56
2022-08-30T17:19:09.455Z,36.11
2022-08-30T17:21:36.111Z,35.55
2022-08-30T17:24:05.406Z,38.00
2022-08-30T17:26:33.495Z,37.04
2022-08-30T17:28:59.983Z,38.01
2022-08-30T17:31:27.911Z,37.83
2022-08-30T17:34:00.511Z,36.71
2022-08-30T17:36:27.897Z,39.10
2022-08-30T17:38:54.602Z,37.27
2022-08-30T17:41:21.022Z,39.08
2022-08-30T17:43:47.439Z,38.54
2022-08-30T17:46:18.670Z,38.07
2022-08-30T17:48:45.707Z,40.91
2022-08-30T17:51:12.778Z,39.88
2022-08-30T17:53:39.182Z,39.38
2022-08-30T17:56:05.711Z,40.05
2022-08-30T17:58:32.401Z,39.63
2022-08-30T18:01:11.768Z,41.23
2022-08-30T18:03:39.283Z,41.99
2022-08-30T18:06:06.638Z,42.91
2022-08-30T18:08:34.047Z,41.30
2022-08-30T18:11:01.506Z,42.19
2022-08-30T18:13:28.016Z,41.03
2022-08-30T18:15:55.002Z,44.00
2022-08-30T18:18:21.705Z,42.15
2022-08-30T18:20:48.287Z,42.94
2022-08-30T18:23:14.731Z,44.51
2022-08-30T18:25:42.179Z,42.77
2022-08-30T18:28:08.806Z,45.64
2022-08-30T18:33:26.289Z,43.18
2022-08-30T18:35:55.718Z,44.05
2022-08-30T18:38:23.618Z,44.37
2022-08-30T18:40:50.794Z,43.30
2022-08-30T18:43:17.306Z,46.49
2022-08-30T18:45:51.287Z,46.01
2022-08-30T18:48:18.292Z,44.44
2022-08-30T18:50:45.259Z,45.05
2022-08-30T18:53:12.157Z,48.62
2022-08-30T18:55:39.610Z,44.25
2022-08-30T18:58:06.037Z,46.63
2022-08-30T19:02:27.713Z,49.84
2022-08-30T19:04:54.921Z,50.68
2022-08-30T19:07:22.516Z,47.98
2022-08-30T19:09:55.763Z,49.84
2022-08-30T19:12:26.132Z,49.93
2022-08-30T19:17:44.370Z,49.09
2022-08-30T19:20:13.475Z,48.41
2022-08-30T19:23:43.116Z,50.56
2022-08-30T19:28:56.258Z,48.86
2022-08-30T19:31:23.218Z,49.05
2022-08-30T19:33:49.807Z,51.29
2022-08-30T19:36:16.431Z,51.29
2022-08-30T19:38:44.575Z,52.93
2022-08-30T19:41:13.011Z,52.15
2022-08-30T19:43:39.766Z,53.12
2022-08-30T19:46:06.766Z,54.16
2022-08-30T19:48:39.016Z,55.98
2022-08-30T19:51:08.607Z,56.33
2022-08-30T19:53:35.720Z,56.02
2022-08-30T19:56:02.488Z,56.54
2022-08-30T19:58:30.214Z,57.71
2022-08-30T20:03:45.156Z,52.76
2022-08-30T20:06:11.695Z,56.03
2022-08-30T20:08:38.258Z,55.17
2022-08-30T20:11:05.815Z,54.88
2022-08-30T20:13:33.896Z,55.19
2022-08-30T20:16:01.070Z,57.76
2022-08-30T20:18:28.897Z,58.11
2022-08-30T20:20:55.836Z,55.85
2022-08-30T20:23:25.938Z,57.20
2022-08-30T20:24:27.094Z,43.90
2022-08-30T20:25:54.423Z,56.73
2022-08-30T20:28:21.209Z,56.30
2022-08-30T20:30:49.380Z,58.70
2022-08-30T20:33:17.391Z,59.04
2022-08-30T20:35:49.001Z,57.07
2022-08-30T20:38:21.211Z,58.43
2022-08-30T20:40:50.414Z,59.47
2022-08-30T20:43:18.967Z,59.14
2022-08-30T20:45:45.998Z,60.08
2022-08-30T20:48:13.191Z,60.18
2022-08-30T20:50:40.962Z,60.96
2022-08-30T20:53:08.192Z,61.63
2022-08-30T20:55:34.739Z,60.81
2022-08-30T20:58:01.305Z,63.27
2022-08-30T21:00:27.827Z,61.03
2022-08-30T21:02:54.443Z,62.87
2022-08-30T21:05:21.144Z,64.80
2022-08-30T21:07:47.727Z,64.08
2022-08-30T21:10:14.861Z,62.31
2022-08-30T21:12:42.835Z,65.70
2022-08-30T21:15:34.092Z,64.51
2022-08-30T21:17:56.799Z,65.01
2022-08-30T21:20:23.430Z,63.26
2022-08-30T21:22:50.035Z,63.28
2022-08-30T21:25:16.716Z,63.33
2022-08-30T21:27:44.016Z,63.16
2022-08-30T21:30:14.639Z,63.54
2022-08-30T21:32:41.314Z,65.90
2022-08-30T21:35:27.816Z,66.27
2022-08-30T21:37:54.736Z,68.12
2022-08-30T21:40:21.505Z,68.96
2022-08-30T21:42:48.224Z,67.45
2022-08-30T21:45:15.307Z,68.88
2022-08-30T21:47:42.347Z,68.29
2022-08-30T21:50:09.304Z,68.71
2022-08-30T21:52:36.267Z,69.54
2022-08-30T21:55:03.072Z,70.26
2022-08-30T21:57:30.261Z,68.60
2022-08-30T21:59:56.900Z,68.54
2022-08-30T22:02:23.578Z,69.66
2022-08-30T22:04:50.125Z,69.41
2022-08-30T22:07:16.722Z,68.93
2022-08-30T22:09:45.783Z,70.95
2022-08-30T22:12:12.378Z,72.43
2022-08-30T22:14:39.430Z,72.92
2022-08-30T22:17:05.997Z,72.34
2022-08-30T22:19:33.808Z,72.19
2022-08-30T22:22:01.685Z,72.15
2022-08-30T22:24:32.727Z,71.10
2022-08-30T22:27:01.271Z,72.31
2022-08-30T22:29:28.239Z,71.31
2022-08-30T22:31:54.855Z,71.46
2022-08-30T22:34:21.456Z,70.47
2022-08-30T22:36:48.071Z,70.27
2022-08-30T22:39:15.119Z,69.71
2022-08-30T22:41:42.930Z,70.42
2022-08-30T22:44:10.598Z,70.68
2022-08-30T22:46:37.850Z,72.05
2022-08-30T22:49:07.670Z,71.93
2022-08-30T22:51:35.260Z,73.36
2022-08-30T22:54:02.620Z,73.58
2022-08-30T22:56:30.758Z,72.69
2022-08-30T22:58:57.353Z,72.23
2022-08-30T23:01:31.965Z,71.65
2022-08-30T23:04:01.118Z,71.89
2022-08-30T23:06:29.103Z,72.51
2022-08-30T23:08:55.904Z,73.09
2022-08-30T23:11:23.685Z,73.18
2022-08-30T23:13:50.651Z,72.79
2022-08-30T23:16:17.698Z,73.54
2022-08-30T23:18:45.648Z,72.56
2022-08-30T23:21:15.274Z,72.70
2022-08-30T23:24:01.371Z,73.45
2022-08-30T23:26:46.605Z,73.89
2022-08-30T23:29:31.969Z,74.87
2022-08-30T23:32:17.798Z,74.48
2022-08-30T23:35:03.286Z,74.17
2022-08-30T23:37:48.623Z,75.68
2022-08-30T23:40:38.976Z,74.14
2022-08-30T23:43:24.243Z,74.30
2022-08-30T23:46:09.238Z,74.31
2022-08-30T23:48:54.267Z,75.87
2022-08-30T23:51:39.718Z,76.43
2022-08-30T23:54:25.084Z,74.97
2022-08-30T23:57:10.407Z,74.71
2022-08-30T23:59:56.136Z,75.07
